This is the latest recevied weather packets stored in our database for station/object VE6KEE-13. If no packets are shown the sender has not sent any weather packets the latest 10 day(s).
| Time | Temp. | Humidity | Pressure | Rain* | Wind** | Luminosity | Snow |
|---|---|---|---|---|---|---|---|
| 1777566582 | 19.44° C | 21% | 1023.4 hPa | 0 mm | - | - | - |
| 1777565682 | 19.44° C | 21% | 1023.5 hPa | 0 mm | - | - | - |
| 1777563880 | 17.22° C | 26% | 1023.9 hPa | 0 mm | - | - | - |
| 1777562979 | 16.11° C | 27% | 1024.1 hPa | 0 mm | - | - | - |
| 1777561178 | 13.33° C | 33% | 1024.4 hPa | 0 mm | - | - | - |
| 1777560277 | 11.11° C | 36% | 1024.5 hPa | 0 mm | - | - | - |
| 1777558475 | 7.22° C | 43% | 1024.8 hPa | 0 mm | - | - | - |
| 1777557575 | 5.56° C | 46% | 1025 hPa | 0 mm | - | - | - |
| 1777556674 | 4.44° C | 48% | 1025 hPa | 0 mm | - | - | - |
| 1777555773 | 3.33° C | 49% | 1025 hPa | 0 mm | - | - | - |
| 1777554872 | 2.78° C | 49% | 1025 hPa | 0 mm | - | - | - |
| 1777553978 | 2.22° C | 49% | 1025 hPa | 0 mm | - | - | - |
| 1777553071 | 2.22° C | 50% | 1024.9 hPa | 0 mm | - | - | - |
| 1777552170 | 2.22° C | 49% | 1024.7 hPa | 0 mm | - | - | - |
| 1777551269 | 2.22° C | 49% | 1024.7 hPa | 0 mm | - | - | - |
| 1777550369 | 2.22° C | 48% | 1024.7 hPa | 0 mm | - | - | - |
| 1777549708 | 2.78° C | 48% | 1024.7 hPa | 0 mm | - | - | - |
| 1777549468 | 2.78° C | 48% | 1024.7 hPa | 0 mm | - | - | - |
| 1777548571 | 2.78° C | 48% | 1024.7 hPa | 0 mm | - | - | - |
| 1777547666 | 2.78° C | 47% | 1024.8 hPa | 0 mm | - | - | - |
| 1777546766 | 3.33° C | 47% | 1024.8 hPa | 0 mm | - | - | - |
| 1777545866 | 3.33° C | 47% | 1024.8 hPa | 0 mm | - | - | - |
| 1777544964 | 3.33° C | 47% | 1024.9 hPa | 0 mm | - | - | - |
| 1777544065 | 3.33° C | 46% | 1024.8 hPa | 0 mm | - | - | - |
| 1777543170 | 3.33° C | 46% | 1024.7 hPa | 0 mm | - | - | - |
* Rain since midnight (hover to see other rain measurements)
** Current wind speed in m/s (hover to see current wind gust speed)